TFFFTLPC

Guest
Details From TFFF - Le Lamentin
To TLPC - Castries - George F L Charles (vigie)
Flight Number -
Tags Generated
Created
Modified
Stats Distance 34 nm / 64 km
Max Altitude 0 ft / 0 m
Waypoints 2
Social Downloads 1
Likes 0
Share VATSIM

Download

Looking for another format? Having issues loading an existing format? Contact us
Advertisement - Login to hide

Notes

Generated

Route

TFFF TLPC

ID Type Via Altitude (ft/m) Position (lat/lon) Dist (leg/tot) Name
O TFFF APT - 0 / 0 14.58843 / -61.01831 - / 0 nm
O TLPC APT - 0 / 0 14.01772 / -61.00122 34 / 34 nm

Altitude Profile

Advertisement - Login to hide

TFFF

Details ICAO TFFF (FDF)
Name Martinique Aime Cesaire Airport
Region France (Guadeloupe, Martinique, Saint Barthélemy, Saint Martin)
Timezone America/Martinique (UTC-4.0)
Stats Elevation 16 ft / 5 m (AMSL)
Location 14.590800° -61.004600°
Runways 1
Magnetic Variation 15.102° W

METAR

TFFF 221700Z AUTO 10014KT 9999 FEW037 SCT043 31/22 Q1014 NOSIG

Decode

TAF

TAF TFFF 221000Z 2212/2312 09009KT 9999 FEW030 PROB30 TEMPO 2300/2306 4000 SHRA FEW020TCU

Decode

Departure Runways

ID Width Length Bearing (true/mag) Surface Threshold Overrun Markings Lighting
10 148 ft / 45 m 9,852 ft / 3,003 m 79.94° / 95.05° ASPHALT 0 ft / 0 m 52 ft / 16 m PREC-APP CENTERLINE EDGE THRESHOLD ALSF-II
28 148 ft / 45 m 9,852 ft / 3,003 m 259.95° / 275.05° ASPHALT 817 ft / 249 m 994 ft / 303 m PREC-APP CENTERLINE EDGE THRESHOLD ALSF-II

TLPC

Details ICAO TLPC (SLU)
Name George F. L. Charles Airport
Region Saint Lucia
Timezone America/St_Lucia (UTC-4.0)
Stats Elevation 21 ft / 6 m (AMSL)
Location 14.020000° -60.992900°
Runways 1
Magnetic Variation 15.121° W

METAR

TLPC 221700Z 11008KT 9999 FEW026 31/22 Q1014 NOSIG

Decode

TAF

TAF TAF TLPC 220500Z 2206/2306 10010KT 9999 SCT025 PROB30 TEMPO 2218/2306 SHRA

Decode

Destination Runways

ID Width Length Bearing (true/mag) Surface Threshold Overrun Markings Lighting
09 148 ft / 45 m 6,233 ft / 1,900 m 74.85° / 89.97° ASPHALT 423 ft / 129 m 0 ft / 0 m APP EDGE THRESHOLD
27 148 ft / 45 m 6,233 ft / 1,900 m 254.85° / 269.97° ASPHALT 866 ft / 264 m 0 ft / 0 m APP EDGE THRESHOLD

Popular Alternatives